sensor_id;sensor_type;location;lat;lon;timestamp;pressure;altitude;pressure_sealevel;temperature;humidity
27984;BME280;15317;50.360;8.726;2023-03-04T00:02:32;100203.28;;;-0.40;100.00
27984;BME280;15317;50.360;8.726;2023-03-04T00:06:35;100216.13;;;-0.48;100.00
27984;BME280;15317;50.360;8.726;2023-03-04T00:10:37;100200.41;;;-0.54;100.00
27984;BME280;15317;50.360;8.726;2023-03-04T00:14:39;100202.75;;;-0.65;100.00
27984;BME280;15317;50.360;8.726;2023-03-04T00:18:41;100211.97;;;-0.72;100.00
27984;BME280;15317;50.360;8.726;2023-03-04T00:22:45;100211.31;;;-0.77;100.00
27984;BME280;15317;50.360;8.726;2023-03-04T00:26:47;100205.19;;;-0.79;100.00
27984;BME280;15317;50.360;8.726;2023-03-04T00:30:48;100203.59;;;-0.83;100.00
27984;BME280;15317;50.360;8.726;2023-03-04T00:34:50;100202.59;;;-0.81;100.00
27984;BME280;15317;50.360;8.726;2023-03-04T00:38:54;100207.78;;;-0.77;100.00
27984;BME280;15317;50.360;8.726;2023-03-04T00:42:56;100205.69;;;-0.71;100.00
27984;BME280;15317;50.360;8.726;2023-03-04T00:46:58;100206.91;;;-0.59;100.00
27984;BME280;15317;50.360;8.726;2023-03-04T00:51:00;100198.28;;;-0.64;100.00
27984;BME280;15317;50.360;8.726;2023-03-04T00:55:04;100198.97;;;-0.61;100.00
27984;BME280;15317;50.360;8.726;2023-03-04T00:59:07;100191.94;;;-0.62;100.00
27984;BME280;15317;50.360;8.726;2023-03-04T01:03:09;100186.44;;;-0.59;100.00
27984;BME280;15317;50.360;8.726;2023-03-04T01:07:11;100189.16;;;-0.60;100.00
27984;BME280;15317;50.360;8.726;2023-03-04T01:11:14;100184.88;;;-0.63;100.00
27984;BME280;15317;50.360;8.726;2023-03-04T01:15:16;100171.44;;;-0.61;100.00
27984;BME280;15317;50.360;8.726;2023-03-04T01:19:18;100179.22;;;-0.57;100.00
27984;BME280;15317;50.360;8.726;2023-03-04T01:23:21;100173.91;;;-0.57;100.00
27984;BME280;15317;50.360;8.726;2023-03-04T01:27:24;100164.81;;;-0.53;100.00
27984;BME280;15317;50.360;8.726;2023-03-04T01:31:26;100166.97;;;-0.42;100.00
27984;BME280;15317;50.360;8.726;2023-03-04T01:35:28;100162.94;;;-0.51;100.00
27984;BME280;15317;50.360;8.726;2023-03-04T01:39:30;100161.44;;;-0.56;100.00
27984;BME280;15317;50.360;8.726;2023-03-04T01:43:35;100153.13;;;-0.50;100.00
27984;BME280;15317;50.360;8.726;2023-03-04T01:47:38;100143.72;;;-0.40;100.00
27984;BME280;15317;50.360;8.726;2023-03-04T01:51:41;100142.56;;;-0.34;100.00
27984;BME280;15317;50.360;8.726;2023-03-04T01:55:44;100131.59;;;-0.28;100.00
27984;BME280;15317;50.360;8.726;2023-03-04T02:00:16;100120.75;;;-0.25;100.00
27984;BME280;15317;50.360;8.726;2023-03-04T02:04:21;100121.38;;;-0.20;100.00
27984;BME280;15317;50.360;8.726;2023-03-04T02:08:24;100120.28;;;-0.16;100.00
27984;BME280;15317;50.360;8.726;2023-03-04T02:12:26;100114.63;;;-0.10;100.00
27984;BME280;15317;50.360;8.726;2023-03-04T02:16:30;100111.91;;;-0.09;100.00
27984;BME280;15317;50.360;8.726;2023-03-04T02:20:37;100112.06;;;0.06;100.00
27984;BME280;15317;50.360;8.726;2023-03-04T02:24:46;100098.91;;;0.01;100.00
27984;BME280;15317;50.360;8.726;2023-03-04T02:28:53;100109.22;;;0.09;100.00
27984;BME280;15317;50.360;8.726;2023-03-04T02:32:55;100100.97;;;0.13;100.00
27984;BME280;15317;50.360;8.726;2023-03-04T02:36:58;100101.53;;;0.20;100.00
27984;BME280;15317;50.360;8.726;2023-03-04T02:41:01;100094.66;;;0.31;100.00
27984;BME280;15317;50.360;8.726;2023-03-04T02:45:29;100103.16;;;0.39;100.00
27984;BME280;15317;50.360;8.726;2023-03-04T02:49:32;100103.75;;;0.45;100.00
27984;BME280;15317;50.360;8.726;2023-03-04T02:53:34;100094.88;;;0.44;100.00
27984;BME280;15317;50.360;8.726;2023-03-04T02:57:36;100098.41;;;0.45;100.00
27984;BME280;15317;50.360;8.726;2023-03-04T03:01:39;100086.00;;;0.44;100.00
27984;BME280;15317;50.360;8.726;2023-03-04T03:05:42;100084.13;;;0.46;100.00
27984;BME280;15317;50.360;8.726;2023-03-04T03:09:44;100102.50;;;0.52;100.00
27984;BME280;15317;50.360;8.726;2023-03-04T03:13:45;100093.53;;;0.53;100.00
27984;BME280;15317;50.360;8.726;2023-03-04T03:17:49;100091.41;;;0.59;100.00
27984;BME280;15317;50.360;8.726;2023-03-04T03:21:51;100083.59;;;0.55;100.00
27984;BME280;15317;50.360;8.726;2023-03-04T03:25:53;100084.56;;;0.54;100.00
27984;BME280;15317;50.360;8.726;2023-03-04T03:29:55;100081.66;;;0.58;100.00
27984;BME280;15317;50.360;8.726;2023-03-04T03:33:58;100084.25;;;0.60;100.00
27984;BME280;15317;50.360;8.726;2023-03-04T03:38:00;100090.47;;;0.60;100.00
27984;BME280;15317;50.360;8.726;2023-03-04T03:42:02;100084.06;;;0.63;100.00
27984;BME280;15317;50.360;8.726;2023-03-04T03:46:04;100085.38;;;0.71;100.00
27984;BME280;15317;50.360;8.726;2023-03-04T03:50:08;100081.69;;;0.74;100.00
27984;BME280;15317;50.360;8.726;2023-03-04T03:54:10;100081.50;;;0.77;100.00
27984;BME280;15317;50.360;8.726;2023-03-04T03:58:12;100081.34;;;0.80;100.00
27984;BME280;15317;50.360;8.726;2023-03-04T04:02:15;100072.13;;;0.86;100.00
27984;BME280;15317;50.360;8.726;2023-03-04T04:06:18;100072.03;;;0.87;100.00
27984;BME280;15317;50.360;8.726;2023-03-04T04:10:20;100068.50;;;0.87;100.00
27984;BME280;15317;50.360;8.726;2023-03-04T04:14:22;100074.63;;;0.89;100.00
27984;BME280;15317;50.360;8.726;2023-03-04T04:18:24;100075.91;;;0.97;100.00
27984;BME280;15317;50.360;8.726;2023-03-04T04:22:27;100079.31;;;1.01;100.00
27984;BME280;15317;50.360;8.726;2023-03-04T04:26:29;100072.91;;;1.03;100.00
27984;BME280;15317;50.360;8.726;2023-03-04T04:30:31;100065.50;;;1.08;100.00
27984;BME280;15317;50.360;8.726;2023-03-04T04:34:34;100057.28;;;1.11;100.00
27984;BME280;15317;50.360;8.726;2023-03-04T04:38:37;100059.97;;;1.11;100.00
27984;BME280;15317;50.360;8.726;2023-03-04T04:42:39;100053.50;;;1.15;100.00
27984;BME280;15317;50.360;8.726;2023-03-04T04:46:41;100058.66;;;1.18;100.00
27984;BME280;15317;50.360;8.726;2023-03-04T04:50:43;100051.59;;;1.17;100.00
27984;BME280;15317;50.360;8.726;2023-03-04T04:54:46;100050.81;;;1.15;100.00
27984;BME280;15317;50.360;8.726;2023-03-04T04:58:49;100053.59;;;1.14;100.00
27984;BME280;15317;50.360;8.726;2023-03-04T05:02:51;100053.38;;;1.17;100.00
27984;BME280;15317;50.360;8.726;2023-03-04T05:06:53;100058.66;;;1.18;100.00
27984;BME280;15317;50.360;8.726;2023-03-04T05:10:56;100057.03;;;1.16;100.00
27984;BME280;15317;50.360;8.726;2023-03-04T05:14:58;100056.06;;;1.17;100.00
27984;BME280;15317;50.360;8.726;2023-03-04T05:19:00;100058.84;;;1.15;100.00
27984;BME280;15317;50.360;8.726;2023-03-04T05:23:02;100057.88;;;1.16;100.00
27984;BME280;15317;50.360;8.726;2023-03-04T05:27:05;100054.44;;;1.14;100.00
27984;BME280;15317;50.360;8.726;2023-03-04T05:31:08;100052.53;;;1.16;100.00
27984;BME280;15317;50.360;8.726;2023-03-04T05:35:10;100057.88;;;1.16;100.00
27984;BME280;15317;50.360;8.726;2023-03-04T05:39:12;100058.84;;;1.15;100.00
27984;BME280;15317;50.360;8.726;2023-03-04T05:43:15;100056.00;;;1.18;100.00
27984;BME280;15317;50.360;8.726;2023-03-04T05:47:17;100056.69;;;1.22;100.00
27984;BME280;15317;50.360;8.726;2023-03-04T05:51:20;100056.25;;;1.30;100.00
27984;BME280;15317;50.360;8.726;2023-03-04T05:55:22;100065.13;;;1.30;100.00
27984;BME280;15317;50.360;8.726;2023-03-04T05:59:25;100055.13;;;1.34;100.00
27984;BME280;15317;50.360;8.726;2023-03-04T06:03:27;100068.06;;;1.41;100.00
27984;BME280;15317;50.360;8.726;2023-03-04T06:07:30;100071.91;;;1.51;100.00
27984;BME280;15317;50.360;8.726;2023-03-04T06:11:32;100077.38;;;1.50;100.00
27984;BME280;15317;50.360;8.726;2023-03-04T06:15:35;100078.56;;;1.60;100.00
27984;BME280;15317;50.360;8.726;2023-03-04T06:19:37;100085.66;;;1.61;100.00
27984;BME280;15317;50.360;8.726;2023-03-04T06:23:41;100091.00;;;1.61;100.00
27984;BME280;15317;50.360;8.726;2023-03-04T06:27:44;100091.00;;;1.61;100.00
27984;BME280;15317;50.360;8.726;2023-03-04T06:31:48;100093.69;;;1.61;100.00
27984;BME280;15317;50.360;8.726;2023-03-04T06:35:53;100092.38;;;1.68;100.00
27984;BME280;15317;50.360;8.726;2023-03-04T06:39:55;100099.09;;;1.75;99.92
27984;BME280;15317;50.360;8.726;2023-03-04T06:43:57;100099.09;;;1.75;98.82
27984;BME280;15317;50.360;8.726;2023-03-04T06:48:01;100096.22;;;1.78;99.57
27984;BME280;15317;50.360;8.726;2023-03-04T06:52:03;100101.13;;;1.86;98.61
27984;BME280;15317;50.360;8.726;2023-03-04T06:56:06;100108.56;;;1.96;97.27
27984;BME280;15317;50.360;8.726;2023-03-04T07:00:10;100110.09;;;2.01;96.51
27984;BME280;15317;50.360;8.726;2023-03-04T07:04:14;100100.94;;;2.05;97.26
27984;BME280;15317;50.360;8.726;2023-03-04T07:08:15;100104.00;;;2.13;97.19
27984;BME280;15317;50.360;8.726;2023-03-04T07:12:17;100116.44;;;2.14;96.56
27984;BME280;15317;50.360;8.726;2023-03-04T07:16:21;100121.25;;;2.23;95.83
27984;BME280;15317;50.360;8.726;2023-03-04T07:20:24;100124.88;;;2.22;95.62
27984;BME280;15317;50.360;8.726;2023-03-04T07:24:27;100132.38;;;2.31;96.04
27984;BME280;15317;50.360;8.726;2023-03-04T07:28:29;100133.13;;;2.33;96.05
27984;BME280;15317;50.360;8.726;2023-03-04T07:32:31;100131.25;;;2.35;95.54
27984;BME280;15317;50.360;8.726;2023-03-04T07:36:36;100141.59;;;2.41;94.69
27984;BME280;15317;50.360;8.726;2023-03-04T07:40:38;100143.81;;;2.49;94.59
27984;BME280;15317;50.360;8.726;2023-03-04T07:44:40;100142.56;;;2.54;94.54
27984;BME280;15317;50.360;8.726;2023-03-04T07:48:42;100138.47;;;2.63;93.99
27984;BME280;15317;50.360;8.726;2023-03-04T07:52:47;100145.25;;;2.68;93.67
27984;BME280;15317;50.360;8.726;2023-03-04T07:56:50;100142.13;;;2.76;92.55
27984;BME280;15317;50.360;8.726;2023-03-04T08:00:53;100147.19;;;2.81;92.27
27984;BME280;15317;50.360;8.726;2023-03-04T08:04:55;100141.94;;;2.79;92.06
27984;BME280;15317;50.360;8.726;2023-03-04T08:09:00;100135.31;;;2.85;91.95
27984;BME280;15317;50.360;8.726;2023-03-04T08:13:02;100142.91;;;2.92;91.76
27984;BME280;15317;50.360;8.726;2023-03-04T08:17:04;100145.84;;;2.88;90.61
27984;BME280;15317;50.360;8.726;2023-03-04T08:21:08;100141.44;;;3.01;90.91
27984;BME280;15317;50.360;8.726;2023-03-04T08:25:11;100139.34;;;3.06;90.48
27984;BME280;15317;50.360;8.726;2023-03-04T08:29:15;100145.06;;;3.14;90.45
27984;BME280;15317;50.360;8.726;2023-03-04T08:33:17;100140.94;;;3.23;90.63
27984;BME280;15317;50.360;8.726;2023-03-04T08:37:19;100143.06;;;3.32;89.69
27984;BME280;15317;50.360;8.726;2023-03-04T08:41:22;100144.88;;;3.31;88.08
27984;BME280;15317;50.360;8.726;2023-03-04T08:45:25;100151.19;;;3.44;87.88
27984;BME280;15317;50.360;8.726;2023-03-04T08:49:27;100160.19;;;3.43;87.96
27984;BME280;15317;50.360;8.726;2023-03-04T08:53:29;100157.69;;;3.54;86.98
27984;BME280;15317;50.360;8.726;2023-03-04T08:57:33;100150.38;;;3.56;87.69
27984;BME280;15317;50.360;8.726;2023-03-04T09:01:35;100148.84;;;3.67;87.40
27984;BME280;15317;50.360;8.726;2023-03-04T09:05:36;100148.34;;;3.74;85.99
27984;BME280;15317;50.360;8.726;2023-03-04T09:09:39;100149.03;;;3.90;85.21
27984;BME280;15317;50.360;8.726;2023-03-04T09:13:42;100158.28;;;3.86;84.67
27984;BME280;15317;50.360;8.726;2023-03-04T09:17:44;100152.16;;;3.97;84.63
27984;BME280;15317;50.360;8.726;2023-03-04T09:21:47;100150.50;;;4.09;83.89
27984;BME280;15317;50.360;8.726;2023-03-04T09:25:49;100148.00;;;4.06;84.22
27984;BME280;15317;50.360;8.726;2023-03-04T09:29:53;100148.56;;;4.11;83.10
27984;BME280;15317;50.360;8.726;2023-03-04T09:33:56;100151.28;;;4.23;83.15
27984;BME280;15317;50.360;8.726;2023-03-04T09:37:59;100151.28;;;4.23;82.01
27984;BME280;15317;50.360;8.726;2023-03-04T09:42:01;100152.66;;;4.43;82.03
27984;BME280;15317;50.360;8.726;2023-03-04T09:46:09;100147.03;;;4.46;81.40
27984;BME280;15317;50.360;8.726;2023-03-04T09:50:13;100145.56;;;4.55;81.99
27984;BME280;15317;50.360;8.726;2023-03-04T09:54:23;100140.38;;;4.52;81.12
27984;BME280;15317;50.360;8.726;2023-03-04T09:58:38;100137.16;;;4.72;80.94
27984;BME280;15317;50.360;8.726;2023-03-04T10:02:58;100141.69;;;4.84;79.48
27984;BME280;15317;50.360;8.726;2023-03-04T10:07:07;100142.34;;;4.75;79.52
27984;BME280;15317;50.360;8.726;2023-03-04T10:11:17;100137.47;;;4.80;80.89
27984;BME280;15317;50.360;8.726;2023-03-04T10:15:24;100143.97;;;4.90;80.06
27984;BME280;15317;50.360;8.726;2023-03-04T10:19:37;100134.16;;;4.89;79.17
27984;BME280;15317;50.360;8.726;2023-03-04T10:23:46;100128.53;;;4.92;80.12
27984;BME280;15317;50.360;8.726;2023-03-04T10:27:51;100131.56;;;5.00;78.49
27984;BME280;15317;50.360;8.726;2023-03-04T10:31:55;100121.88;;;4.98;79.12
27984;BME280;15317;50.360;8.726;2023-03-04T10:36:02;100117.53;;;5.08;79.19
27984;BME280;15317;50.360;8.726;2023-03-04T10:40:18;100119.28;;;4.96;79.04
27984;BME280;15317;50.360;8.726;2023-03-04T10:44:21;100126.41;;;4.97;78.67
27984;BME280;15317;50.360;8.726;2023-03-04T10:48:25;100122.59;;;5.12;78.75
27984;BME280;15317;50.360;8.726;2023-03-04T10:52:31;100115.34;;;5.26;77.26
27984;BME280;15317;50.360;8.726;2023-03-04T10:56:37;100109.25;;;5.11;77.79
27984;BME280;15317;50.360;8.726;2023-03-04T11:00:39;100112.97;;;5.34;78.60
27984;BME280;15317;50.360;8.726;2023-03-04T11:04:48;100107.53;;;5.46;77.61
27984;BME280;15317;50.360;8.726;2023-03-04T11:08:56;100097.09;;;5.78;73.18
27984;BME280;15317;50.360;8.726;2023-03-04T11:13:00;100095.00;;;5.82;74.75
27984;BME280;15317;50.360;8.726;2023-03-04T11:17:16;100097.81;;;5.80;73.41
27984;BME280;15317;50.360;8.726;2023-03-04T11:21:21;100087.41;;;6.00;72.48
27984;BME280;15317;50.360;8.726;2023-03-04T11:25:27;100090.03;;;6.12;72.29
27984;BME280;15317;50.360;8.726;2023-03-04T11:29:35;100085.91;;;6.30;72.44
27984;BME280;15317;50.360;8.726;2023-03-04T11:33:43;100091.22;;;6.32;72.46
27984;BME280;15317;50.360;8.726;2023-03-04T11:37:53;100094.78;;;6.09;71.62
27984;BME280;15317;50.360;8.726;2023-03-04T11:42:04;100094.88;;;6.31;71.62
27984;BME280;15317;50.360;8.726;2023-03-04T11:50:52;100069.69;;;6.54;70.73
27984;BME280;15317;50.360;8.726;2023-03-04T11:55:04;100068.22;;;6.61;71.53
27984;BME280;15317;50.360;8.726;2023-03-04T11:59:42;100067.97;;;6.87;68.66
27984;BME280;15317;50.360;8.726;2023-03-04T12:04:02;100059.53;;;7.02;67.55
27984;BME280;15317;50.360;8.726;2023-03-04T12:08:20;100045.13;;;7.13;69.01
27984;BME280;15317;50.360;8.726;2023-03-04T12:12:40;100036.56;;;7.08;68.80
27984;BME280;15317;50.360;8.726;2023-03-04T12:17:08;100030.66;;;7.14;67.91
27984;BME280;15317;50.360;8.726;2023-03-04T12:21:19;100021.31;;;7.07;67.81
27984;BME280;15317;50.360;8.726;2023-03-04T12:25:40;100019.69;;;7.27;67.05
27984;BME280;15317;50.360;8.726;2023-03-04T12:29:47;100018.84;;;7.58;67.38
27984;BME280;15317;50.360;8.726;2023-03-04T12:34:06;100013.09;;;7.63;65.58
27984;BME280;15317;50.360;8.726;2023-03-04T12:38:24;99999.44;;;7.64;65.24
27984;BME280;15317;50.360;8.726;2023-03-04T12:42:37;99995.38;;;7.70;65.76
27984;BME280;15317;50.360;8.726;2023-03-04T12:46:49;99990.88;;;7.80;63.68
27984;BME280;15317;50.360;8.726;2023-03-04T12:51:06;99989.16;;;7.79;65.73
27984;BME280;15317;50.360;8.726;2023-03-04T12:55:14;99988.13;;;7.91;64.90
27984;BME280;15317;50.360;8.726;2023-03-04T12:59:18;99976.19;;;7.93;65.05
27984;BME280;15317;50.360;8.726;2023-03-04T13:03:26;99972.50;;;8.15;65.08
27984;BME280;15317;50.360;8.726;2023-03-04T13:07:41;99973.94;;;8.19;63.91
27984;BME280;15317;50.360;8.726;2023-03-04T13:11:54;99966.94;;;8.17;64.14
27984;BME280;15317;50.360;8.726;2023-03-04T13:16:04;99962.09;;;8.31;63.64
27984;BME280;15317;50.360;8.726;2023-03-04T13:20:22;99957.69;;;8.19;64.75
27984;BME280;15317;50.360;8.726;2023-03-04T13:24:46;99955.28;;;7.96;64.81
27984;BME280;15317;50.360;8.726;2023-03-04T13:33:44;99941.63;;;7.76;64.29
27984;BME280;15317;50.360;8.726;2023-03-04T13:37:56;99937.59;;;7.71;66.53
27984;BME280;15317;50.360;8.726;2023-03-04T13:42:01;99934.41;;;7.66;65.84
27984;BME280;15317;50.360;8.726;2023-03-04T13:46:28;99931.38;;;7.59;66.12
27984;BME280;15317;50.360;8.726;2023-03-04T13:50:39;99922.47;;;7.47;66.75
27984;BME280;15317;50.360;8.726;2023-03-04T13:54:41;99917.56;;;7.41;67.09
27984;BME280;15317;50.360;8.726;2023-03-04T13:58:45;99925.69;;;7.41;67.66
27984;BME280;15317;50.360;8.726;2023-03-04T14:02:47;99929.94;;;7.23;68.43
27984;BME280;15317;50.360;8.726;2023-03-04T14:06:49;99923.69;;;7.11;69.43
27984;BME280;15317;50.360;8.726;2023-03-04T14:10:55;99927.81;;;6.95;70.05
27984;BME280;15317;50.360;8.726;2023-03-04T14:15:01;99913.81;;;6.90;70.19
27984;BME280;15317;50.360;8.726;2023-03-04T14:19:05;99920.44;;;6.86;71.55
27984;BME280;15317;50.360;8.726;2023-03-04T14:23:24;99910.63;;;6.85;71.76
27984;BME280;15317;50.360;8.726;2023-03-04T14:27:27;99899.84;;;6.85;72.90
27984;BME280;15317;50.360;8.726;2023-03-04T14:31:33;99905.84;;;6.88;73.10
27984;BME280;15317;50.360;8.726;2023-03-04T14:35:36;99903.66;;;6.82;73.52
27984;BME280;15317;50.360;8.726;2023-03-04T14:39:38;99901.66;;;6.95;72.34
27984;BME280;15317;50.360;8.726;2023-03-04T14:43:53;99895.53;;;6.93;73.05
27984;BME280;15317;50.360;8.726;2023-03-04T14:48:03;99899.34;;;6.80;73.23
27984;BME280;15317;50.360;8.726;2023-03-04T14:52:24;99890.00;;;6.84;74.13
27984;BME280;15317;50.360;8.726;2023-03-04T14:56:28;99885.13;;;6.89;73.69
27984;BME280;15317;50.360;8.726;2023-03-04T15:00:32;99881.19;;;6.82;73.09
27984;BME280;15317;50.360;8.726;2023-03-04T15:04:38;99880.69;;;6.88;72.86
27984;BME280;15317;50.360;8.726;2023-03-04T15:08:41;99879.94;;;6.86;73.25
27984;BME280;15317;50.360;8.726;2023-03-04T15:12:50;99880.94;;;6.85;73.57
27984;BME280;15317;50.360;8.726;2023-03-04T15:16:53;99872.59;;;6.77;73.79
27984;BME280;15317;50.360;8.726;2023-03-04T15:21:00;99873.84;;;6.72;74.40
27984;BME280;15317;50.360;8.726;2023-03-04T15:25:02;99875.44;;;6.64;74.66
27984;BME280;15317;50.360;8.726;2023-03-04T15:29:10;99871.06;;;6.52;75.44
27984;BME280;15317;50.360;8.726;2023-03-04T15:33:14;99858.69;;;6.38;77.40
27984;BME280;15317;50.360;8.726;2023-03-04T15:37:21;99864.09;;;6.38;77.97
27984;BME280;15317;50.360;8.726;2023-03-04T15:41:25;99862.38;;;6.48;77.94
27984;BME280;15317;50.360;8.726;2023-03-04T15:45:28;99856.00;;;6.38;77.94
27984;BME280;15317;50.360;8.726;2023-03-04T15:49:30;99854.53;;;6.34;77.20
27984;BME280;15317;50.360;8.726;2023-03-04T15:53:36;99848.13;;;6.35;77.39
27984;BME280;15317;50.360;8.726;2023-03-04T15:57:39;99853.06;;;6.41;78.15
27984;BME280;15317;50.360;8.726;2023-03-04T16:01:41;99848.03;;;6.37;77.57
27984;BME280;15317;50.360;8.726;2023-03-04T16:05:45;99852.44;;;6.38;78.17
27984;BME280;15317;50.360;8.726;2023-03-04T16:09:53;99850.72;;;6.37;78.38
27984;BME280;15317;50.360;8.726;2023-03-04T16:13:55;99850.72;;;6.37;78.98
27984;BME280;15317;50.360;8.726;2023-03-04T16:17:57;99852.19;;;6.41;79.17
27984;BME280;15317;50.360;8.726;2023-03-04T16:22:00;99847.44;;;6.33;79.97
27984;BME280;15317;50.360;8.726;2023-03-04T16:26:13;99852.69;;;6.23;80.07
27984;BME280;15317;50.360;8.726;2023-03-04T16:30:17;99836.41;;;6.25;80.54
27984;BME280;15317;50.360;8.726;2023-03-04T16:34:19;99832.00;;;6.13;81.15
27984;BME280;15317;50.360;8.726;2023-03-04T16:38:23;99837.63;;;6.10;81.59
27984;BME280;15317;50.360;8.726;2023-03-04T16:42:28;99845.72;;;6.10;82.35
27984;BME280;15317;50.360;8.726;2023-03-04T16:46:30;99845.94;;;5.95;83.41
27984;BME280;15317;50.360;8.726;2023-03-04T16:50:34;99862.63;;;5.89;83.74
27984;BME280;15317;50.360;8.726;2023-03-04T16:54:37;99858.91;;;5.79;85.26
27984;BME280;15317;50.360;8.726;2023-03-04T16:58:40;99850.31;;;5.74;86.40
27984;BME280;15317;50.360;8.726;2023-03-04T17:02:43;99851.66;;;5.69;88.24
27984;BME280;15317;50.360;8.726;2023-03-04T17:06:45;99849.34;;;5.64;88.41
27984;BME280;15317;50.360;8.726;2023-03-04T17:10:47;99852.50;;;5.58;89.22
27984;BME280;15317;50.360;8.726;2023-03-04T17:14:51;99856.66;;;5.62;89.50
27984;BME280;15317;50.360;8.726;2023-03-04T17:18:53;99849.44;;;5.51;90.65
27984;BME280;15317;50.360;8.726;2023-03-04T17:22:55;99846.34;;;5.45;91.93
27984;BME280;15317;50.360;8.726;2023-03-04T17:26:57;99848.53;;;5.40;92.83
27984;BME280;15317;50.360;8.726;2023-03-04T17:31:00;99843.38;;;5.37;93.51
27984;BME280;15317;50.360;8.726;2023-03-04T17:35:03;99853.31;;;5.36;94.17
27984;BME280;15317;50.360;8.726;2023-03-04T17:39:05;99854.75;;;5.29;94.94
27984;BME280;15317;50.360;8.726;2023-03-04T17:43:07;99859.38;;;5.27;95.82
27984;BME280;15317;50.360;8.726;2023-03-04T17:47:13;99859.75;;;5.23;97.50
27984;BME280;15317;50.360;8.726;2023-03-04T17:51:15;99862.16;;;5.14;99.13
27984;BME280;15317;50.360;8.726;2023-03-04T17:55:17;99856.16;;;5.11;100.00
27984;BME280;15317;50.360;8.726;2023-03-04T17:59:19;99850.88;;;5.09;100.00
27984;BME280;15317;50.360;8.726;2023-03-04T18:03:22;99851.34;;;5.03;100.00
27984;BME280;15317;50.360;8.726;2023-03-04T18:07:24;99855.22;;;4.99;100.00
27984;BME280;15317;50.360;8.726;2023-03-04T18:11:27;99853.00;;;4.93;100.00
27984;BME280;15317;50.360;8.726;2023-03-04T18:15:29;99855.47;;;4.96;100.00
27984;BME280;15317;50.360;8.726;2023-03-04T18:19:32;99852.50;;;4.88;100.00
27984;BME280;15317;50.360;8.726;2023-03-04T18:23:34;99863.28;;;4.88;100.00
27984;BME280;15317;50.360;8.726;2023-03-04T18:27:36;99855.78;;;4.81;100.00
27984;BME280;15317;50.360;8.726;2023-03-04T18:31:39;99860.28;;;4.80;100.00
27984;BME280;15317;50.360;8.726;2023-03-04T18:35:43;99857.09;;;4.75;100.00
27984;BME280;15317;50.360;8.726;2023-03-04T18:39:44;99855.16;;;4.77;100.00
27984;BME280;15317;50.360;8.726;2023-03-04T18:43:46;99866.94;;;4.87;100.00
27984;BME280;15317;50.360;8.726;2023-03-04T18:47:49;99857.09;;;4.75;100.00
27984;BME280;15317;50.360;8.726;2023-03-04T18:51:53;99855.59;;;4.71;100.00
27984;BME280;15317;50.360;8.726;2023-03-04T18:55:57;99858.16;;;4.72;100.00
27984;BME280;15317;50.360;8.726;2023-03-04T19:00:04;99839.91;;;4.65;100.00
27984;BME280;15317;50.360;8.726;2023-03-04T19:04:06;99840.03;;;4.63;100.00
27984;BME280;15317;50.360;8.726;2023-03-04T19:08:10;99842.84;;;4.62;100.00
27984;BME280;15317;50.360;8.726;2023-03-04T19:12:12;99846.38;;;4.62;100.00
27984;BME280;15317;50.360;8.726;2023-03-04T19:16:14;99848.72;;;4.67;100.00
27984;BME280;15317;50.360;8.726;2023-03-04T19:20:16;99847.47;;;4.60;100.00
27984;BME280;15317;50.360;8.726;2023-03-04T19:24:19;99850.25;;;4.58;100.00
27984;BME280;15317;50.360;8.726;2023-03-04T19:28:21;99847.91;;;4.54;100.00
27984;BME280;15317;50.360;8.726;2023-03-04T19:32:24;99849.41;;;4.58;100.00
27984;BME280;15317;50.360;8.726;2023-03-04T19:36:26;99852.69;;;4.50;100.00
27984;BME280;15317;50.360;8.726;2023-03-04T19:40:29;99855.47;;;4.49;100.00
27984;BME280;15317;50.360;8.726;2023-03-04T19:44:31;99853.75;;;4.48;100.00
27984;BME280;15317;50.360;8.726;2023-03-04T19:48:33;99853.00;;;4.46;100.00
27984;BME280;15317;50.360;8.726;2023-03-04T19:52:36;99849.53;;;4.44;100.00
27984;BME280;15317;50.360;8.726;2023-03-04T19:56:39;99852.13;;;4.45;100.00
27984;BME280;15317;50.360;8.726;2023-03-04T20:00:41;99847.84;;;4.43;100.00
27984;BME280;15317;50.360;8.726;2023-03-04T20:04:43;99848.81;;;4.42;100.00
27984;BME280;15317;50.360;8.726;2023-03-04T20:08:45;99849.69;;;4.42;100.00
27984;BME280;15317;50.360;8.726;2023-03-04T20:12:48;99846.34;;;4.38;100.00
27984;BME280;15317;50.360;8.726;2023-03-04T20:16:52;99851.63;;;4.40;100.00
27984;BME280;15317;50.360;8.726;2023-03-04T20:20:55;99846.25;;;4.40;100.00
27984;BME280;15317;50.360;8.726;2023-03-04T20:24:57;99849.91;;;4.39;100.00
27984;BME280;15317;50.360;8.726;2023-03-04T20:29:00;99848.41;;;4.35;100.00
27984;BME280;15317;50.360;8.726;2023-03-04T20:33:02;99846.78;;;4.32;100.00
27984;BME280;15317;50.360;8.726;2023-03-04T20:37:04;99853.34;;;4.41;100.00
27984;BME280;15317;50.360;8.726;2023-03-04T20:41:06;99849.28;;;4.35;100.00
27984;BME280;15317;50.360;8.726;2023-03-04T20:45:10;99847.31;;;4.37;100.00
27984;BME280;15317;50.360;8.726;2023-03-04T20:49:14;99858.31;;;4.34;100.00
27984;BME280;15317;50.360;8.726;2023-03-04T20:53:19;99845.84;;;4.33;100.00
27984;BME280;15317;50.360;8.726;2023-03-04T20:57:21;99842.72;;;4.27;100.00
27984;BME280;15317;50.360;8.726;2023-03-04T21:01:24;99843.94;;;4.23;100.00
27984;BME280;15317;50.360;8.726;2023-03-04T21:05:26;99844.91;;;4.22;100.00
27984;BME280;15317;50.360;8.726;2023-03-04T21:09:29;99837.69;;;4.22;100.00
27984;BME280;15317;50.360;8.726;2023-03-04T21:13:31;99840.50;;;4.21;100.00
27984;BME280;15317;50.360;8.726;2023-03-04T21:17:37;99835.09;;;4.21;100.00
27984;BME280;15317;50.360;8.726;2023-03-04T21:21:39;99833.91;;;4.25;100.00
27984;BME280;15317;50.360;8.726;2023-03-04T21:25:41;99830.34;;;4.24;100.00
27984;BME280;15317;50.360;8.726;2023-03-04T21:29:44;99828.88;;;4.20;100.00
27984;BME280;15317;50.360;8.726;2023-03-04T21:33:47;99824.34;;;4.21;100.00
27984;BME280;15317;50.360;8.726;2023-03-04T21:37:49;99807.38;;;4.20;100.00
27984;BME280;15317;50.360;8.726;2023-03-04T21:41:52;99817.25;;;4.20;100.00